Time;durP1;ratioP1;P1;durP2;ratioP2;P2;SDS_P1;SDS_P2;PMS_P1;PMS_P2;Temp;Humidity;BMP_temperature;BMP_pressure;BME280_temperature;BME280_humidity;BME280_pressure;Samples;Min_cycle;Max_cycle;Signal;HPM_P1;HPM_P2
2023/05/09 00:02:17;;;;;;;27.67;25.00;;;14.60;99.90;;;;;;6138332;23;20451;-75
2023/05/09 00:04:44;;;;;;;27.80;25.40;;;14.50;99.90;;;;;;6145115;23;20486;-75
2023/05/09 00:07:11;;;;;;;25.93;23.63;;;14.50;99.90;;;;;;6143688;23;20462;-75
2023/05/09 00:09:38;;;;;;;25.37;23.07;;;14.40;99.90;;;;;;6134791;23;20480;-75
2023/05/09 00:12:06;;;;;;;26.77;24.37;;;14.40;99.90;;;;;;6131785;23;20548;-75
2023/05/09 00:14:35;;;;;;;26.03;23.73;;;14.40;99.90;;;;;;6130073;23;20437;-75
2023/05/09 00:17:02;;;;;;;26.57;24.23;;;14.30;99.90;;;;;;6137250;23;20967;-75
2023/05/09 00:19:29;;;;;;;26.57;24.27;;;14.30;99.90;;;;;;6127054;23;20464;-75
2023/05/09 00:21:56;;;;;;;25.80;23.50;;;14.30;99.90;;;;;;6129892;23;20960;-75
2023/05/09 00:24:23;;;;;;;28.23;25.73;;;14.30;99.90;;;;;;6129529;23;20440;-75
2023/05/09 00:26:50;;;;;;;26.73;24.23;;;14.30;99.90;;;;;;6138021;23;20439;-75
2023/05/09 00:29:17;;;;;;;27.40;25.07;;;14.30;99.90;;;;;;6131716;23;20535;-75
2023/05/09 00:31:46;;;;;;;27.40;24.60;;;14.30;99.90;;;;;;6135768;23;20522;-75
2023/05/09 00:34:12;;;;;;;25.90;23.80;;;14.30;99.90;;;;;;6131691;23;20518;-75
2023/05/09 00:36:40;;;;;;;26.20;23.90;;;14.30;99.90;;;;;;6137195;23;21035;-75
2023/05/09 00:39:08;;;;;;;28.00;25.57;;;14.20;99.90;;;;;;6133108;23;21058;-75
2023/05/09 00:41:35;;;;;;;28.30;25.70;;;14.20;99.90;;;;;;6134113;23;20951;-75
2023/05/09 00:44:02;;;;;;;26.53;24.13;;;14.20;99.90;;;;;;6133162;23;20440;-75
2023/05/09 00:46:29;;;;;;;25.20;22.90;;;14.10;99.90;;;;;;6129855;23;20439;-75
2023/05/09 00:48:58;;;;;;;25.17;22.97;;;14.10;99.90;;;;;;6130542;23;20493;-74
2023/05/09 00:51:25;;;;;;;24.47;22.40;;;14.10;99.90;;;;;;6135455;23;20532;-75
2023/05/09 00:53:52;;;;;;;25.30;23.00;;;14.10;99.90;;;;;;6138683;23;20441;-75
2023/05/09 00:56:20;;;;;;;25.50;23.30;;;14.00;99.90;;;;;;6131025;23;20465;-75
2023/05/09 00:58:47;;;;;;;26.10;23.90;;;14.00;99.90;;;;;;6135555;23;20459;-74
2023/05/09 01:01:15;;;;;;;26.40;24.00;;;14.00;99.90;;;;;;6130481;23;21367;-75
2023/05/09 01:03:43;;;;;;;25.13;22.63;;;14.00;99.90;;;;;;6133675;23;20448;-75
2023/05/09 01:06:18;;;;;;;26.13;23.87;;;14.00;99.90;;;;;;6126497;23;21022;-75
2023/05/09 01:08:57;;;;;;;26.40;24.13;;;14.00;99.90;;;;;;6125538;23;20466;-75
2023/05/09 01:11:31;;;;;;;25.90;23.17;;;14.00;99.90;;;;;;6130054;23;20480;-74
2023/05/09 01:14:08;;;;;;;28.10;25.70;;;14.00;99.90;;;;;;6135059;23;20447;-75
2023/05/09 01:16:41;;;;;;;25.93;23.83;;;14.00;99.90;;;;;;6138605;23;20604;-75
2023/05/09 01:19:27;;;;;;;27.90;25.20;;;14.00;99.90;;;;;;6132134;23;20936;-75
2023/05/09 01:21:57;;;;;;;26.00;23.70;;;14.00;99.90;;;;;;6130363;23;20443;-75
2023/05/09 01:25:00;;;;;;;26.73;24.33;;;13.90;99.90;;;;;;6126328;23;20446;-75
2023/05/09 01:27:36;;;;;;;26.83;24.43;;;14.00;99.90;;;;;;6067312;23;20452;-75
2023/05/09 01:30:07;;;;;;;26.63;24.13;;;14.00;99.90;;;;;;6135415;23;20522;-75
2023/05/09 01:32:37;;;;;;;24.30;22.10;;;13.90;99.90;;;;;;6134246;23;20508;-74
2023/05/09 01:35:06;;;;;;;25.97;23.60;;;13.90;99.90;;;;;;6132565;23;20694;-75
2023/05/09 01:37:35;;;;;;;24.00;22.00;;;13.90;99.90;;;;;;6133045;23;20471;-75
2023/05/09 01:40:08;;;;;;;25.73;23.60;;;13.80;99.90;;;;;;6136188;23;20438;-75
2023/05/09 01:42:41;;;;;;;25.80;23.40;;;13.80;99.90;;;;;;6134798;23;20768;-74
2023/05/09 01:45:12;;;;;;;26.20;23.90;;;13.80;99.90;;;;;;6131411;23;21199;-75
2023/05/09 01:47:41;;;;;;;26.17;23.87;;;13.80;99.90;;;;;;6127484;23;20519;-75
2023/05/09 01:50:10;;;;;;;26.13;23.63;;;13.80;99.90;;;;;;6123227;23;20526;-75
2023/05/09 01:52:38;;;;;;;25.90;23.70;;;13.80;99.90;;;;;;6126794;23;20462;-75
2023/05/09 01:55:07;;;;;;;24.70;22.63;;;13.80;99.90;;;;;;6131808;23;20554;-75
2023/05/09 01:57:36;;;;;;;25.47;23.17;;;13.80;99.90;;;;;;6130105;23;20463;-75
2023/05/09 02:00:06;;;;;;;25.13;23.03;;;13.80;99.90;;;;;;6129079;23;20522;-75
2023/05/09 02:02:36;;;;;;;25.33;23.03;;;13.70;99.90;;;;;;6130069;23;20437;-74
2023/05/09 02:05:03;;;;;;;27.53;25.13;;;13.70;99.90;;;;;;6129062;23;20466;-75
2023/05/09 02:07:31;;;;;;;27.27;24.80;;;13.70;99.90;;;;;;6131497;23;20444;-74
2023/05/09 02:09:58;;;;;;;28.00;25.40;;;13.80;99.90;;;;;;6135219;23;20521;-75
2023/05/09 02:12:26;;;;;;;27.67;25.17;;;13.80;99.90;;;;;;6134143;23;20435;-75
2023/05/09 02:14:53;;;;;;;27.20;24.70;;;13.80;99.90;;;;;;6126639;23;20430;-75
2023/05/09 02:17:20;;;;;;;25.93;23.53;;;13.80;99.90;;;;;;6134789;23;20473;-75
2023/05/09 02:19:48;;;;;;;26.93;24.50;;;13.80;99.90;;;;;;6131433;23;20562;-74
2023/05/09 02:22:15;;;;;;;27.07;24.77;;;13.80;99.90;;;;;;6126826;23;20892;-75
2023/05/09 02:24:43;;;;;;;26.23;23.83;;;13.80;99.90;;;;;;6135075;23;20518;-74
2023/05/09 02:27:12;;;;;;;29.13;26.43;;;13.80;99.90;;;;;;6132035;23;20443;-74
2023/05/09 02:29:48;;;;;;;26.67;24.17;;;13.70;99.90;;;;;;6134334;23;20541;-74
2023/05/09 02:32:20;;;;;;;25.43;23.23;;;13.70;99.90;;;;;;6130453;23;20561;-74
2023/05/09 02:34:50;;;;;;;27.23;24.73;;;13.70;99.90;;;;;;6137331;23;20435;-74
2023/05/09 02:37:18;;;;;;;24.40;22.30;;;13.80;99.90;;;;;;6138382;23;20851;-74
2023/05/09 02:39:45;;;;;;;25.20;22.90;;;13.70;99.90;;;;;;6138553;23;20476;-75
2023/05/09 02:42:15;;;;;;;24.73;22.60;;;13.60;99.90;;;;;;6130054;23;20546;-75
2023/05/09 02:44:42;;;;;;;26.53;24.10;;;13.50;99.90;;;;;;6132253;23;20464;-74
2023/05/09 02:47:09;;;;;;;27.50;25.10;;;13.50;99.90;;;;;;6133354;23;20459;-75
2023/05/09 02:49:36;;;;;;;30.30;27.30;;;13.50;99.90;;;;;;6128296;23;20866;-75
2023/05/09 02:52:05;;;;;;;29.97;27.17;;;13.40;99.90;;;;;;6126886;23;20469;-75
2023/05/09 02:54:33;;;;;;;28.47;25.80;;;13.40;99.90;;;;;;6138091;23;20444;-75
2023/05/09 02:57:00;;;;;;;28.77;26.00;;;13.40;99.90;;;;;;6130612;23;20488;-75
2023/05/09 02:59:27;;;;;;;28.90;26.30;;;13.30;99.90;;;;;;6130459;23;20450;-75
2023/05/09 03:01:54;;;;;;;28.30;25.70;;;13.30;99.90;;;;;;6132587;23;20431;-75
2023/05/09 03:04:21;;;;;;;29.97;27.30;;;13.30;99.90;;;;;;6129515;23;20445;-75
2023/05/09 03:06:48;;;;;;;28.30;25.63;;;13.20;99.90;;;;;;6129464;23;20497;-75
2023/05/09 03:09:16;;;;;;;27.43;24.93;;;13.20;99.90;;;;;;6134630;23;20449;-75
2023/05/09 03:11:43;;;;;;;28.13;25.47;;;13.20;99.90;;;;;;6134919;23;20485;-75
2023/05/09 03:14:12;;;;;;;27.17;24.67;;;13.20;99.90;;;;;;6125525;23;20471;-75
2023/05/09 03:16:39;;;;;;;27.73;25.23;;;13.20;99.90;;;;;;6145908;23;20476;-75
2023/05/09 03:19:06;;;;;;;26.77;24.37;;;13.10;99.90;;;;;;6136826;23;20528;-75
2023/05/09 03:21:33;;;;;;;28.77;26.17;;;13.10;99.90;;;;;;6124807;23;21163;-75
2023/05/09 03:24:00;;;;;;;28.17;25.47;;;13.10;99.90;;;;;;6142583;23;20428;-75
2023/05/09 03:26:28;;;;;;;26.60;24.20;;;13.10;99.90;;;;;;6142133;23;20440;-75
2023/05/09 03:28:55;;;;;;;28.63;25.87;;;13.10;99.90;;;;;;6142540;23;20513;-75
2023/05/09 03:31:22;;;;;;;25.23;22.93;;;13.10;99.90;;;;;;6132215;23;20433;-75
2023/05/09 03:33:49;;;;;;;27.07;24.53;;;13.10;99.90;;;;;;6143584;23;20504;-75
2023/05/09 03:36:17;;;;;;;28.07;25.43;;;13.10;99.90;;;;;;6143726;23;20465;-75
2023/05/09 03:38:44;;;;;;;27.90;25.30;;;13.00;99.90;;;;;;6145416;23;20820;-75
2023/05/09 03:41:12;;;;;;;28.03;25.43;;;13.00;99.90;;;;;;6140323;23;20474;-75
2023/05/09 03:43:40;;;;;;;27.17;24.57;;;13.00;99.90;;;;;;6126359;23;20469;-75
2023/05/09 03:46:08;;;;;;;28.50;25.70;;;13.00;99.90;;;;;;6128814;23;20458;-75
2023/05/09 03:48:35;;;;;;;26.75;24.15;;;12.90;99.90;;;;;;6141435;23;20530;-75
2023/05/09 03:51:02;;;;;;;27.90;25.23;;;12.90;99.90;;;;;;6121960;23;20580;-74
2023/05/09 03:53:29;;;;;;;27.10;24.40;;;12.90;99.90;;;;;;6131404;23;21025;-75
2023/05/09 03:55:56;;;;;;;27.13;24.50;;;12.90;99.90;;;;;;6142029;23;20430;-75
2023/05/09 03:58:23;;;;;;;28.57;25.77;;;12.90;99.90;;;;;;6143844;23;20473;-75
2023/05/09 04:00:52;;;;;;;27.92;25.27;;;13.00;99.90;;;;;;6146489;23;20437;-75
2023/05/09 04:03:19;;;;;;;30.10;27.10;;;13.00;99.90;;;;;;6142723;23;20576;-75
2023/05/09 04:05:46;;;;;;;28.50;25.90;;;13.00;99.90;;;;;;6128575;23;20964;-75
2023/05/09 04:08:13;;;;;;;28.80;26.10;;;13.00;99.90;;;;;;6131600;23;20456;-75
2023/05/09 04:10:40;;;;;;;31.93;29.03;;;12.90;99.90;;;;;;6132936;23;20462;-75
2023/05/09 04:13:08;;;;;;;29.33;26.53;;;12.90;99.90;;;;;;6146076;23;20959;-75
2023/05/09 04:15:35;;;;;;;29.77;26.87;;;13.00;99.90;;;;;;6145352;23;20464;-75
2023/05/09 04:18:03;;;;;;;30.40;27.33;;;13.00;99.90;;;;;;6126853;23;20852;-77
2023/05/09 04:20:31;;;;;;;28.23;25.70;;;13.10;99.90;;;;;;6141169;23;20527;-77
2023/05/09 04:22:58;;;;;;;32.40;29.27;;;13.20;99.90;;;;;;6140277;23;20438;-77
2023/05/09 04:25:25;;;;;;;30.40;27.53;;;13.20;99.90;;;;;;6131275;23;20898;-75
2023/05/09 04:27:52;;;;;;;27.73;25.30;;;13.30;99.90;;;;;;6134068;23;20462;-76
2023/05/09 04:30:20;;;;;;;29.37;26.67;;;13.30;99.90;;;;;;6138138;23;20518;-74
2023/05/09 04:32:47;;;;;;;31.83;28.87;;;13.40;99.90;;;;;;6140210;23;20492;-75
2023/05/09 04:35:16;;;;;;;30.23;27.30;;;13.40;99.90;;;;;;6131306;23;20509;-77
2023/05/09 04:37:43;;;;;;;30.23;26.97;;;13.40;99.90;;;;;;6133090;23;20498;-76
2023/05/09 04:40:11;;;;;;;32.40;29.30;;;13.40;99.90;;;;;;6129273;23;20980;-75
2023/05/09 04:42:38;;;;;;;29.93;27.10;;;13.30;99.90;;;;;;6142409;23;20446;-76
2023/05/09 04:45:06;;;;;;;30.03;27.23;;;13.30;99.90;;;;;;6135961;23;20434;-75
2023/05/09 04:47:33;;;;;;;29.73;27.00;;;13.30;99.90;;;;;;6138497;23;20439;-74
2023/05/09 04:50:00;;;;;;;31.25;28.27;;;13.30;99.90;;;;;;6134878;23;20491;-70
2023/05/09 04:52:28;;;;;;;31.10;28.10;;;13.30;99.90;;;;;;6140033;23;20295;-70
2023/05/09 04:54:56;;;;;;;31.43;28.23;;;13.40;99.90;;;;;;6132317;23;20510;-73
2023/05/09 04:57:23;;;;;;;32.87;29.63;;;13.50;99.90;;;;;;6133875;23;20461;-88
2023/05/09 04:59:51;;;;;;;31.13;28.10;;;13.40;99.90;;;;;;6147376;23;20935;-87
2023/05/09 05:02:20;;;;;;;30.40;27.33;;;13.50;99.90;;;;;;6137202;23;20442;-90
2023/05/09 05:04:47;;;;;;;29.50;26.70;;;13.50;99.90;;;;;;6144399;23;20450;-89
2023/05/09 05:07:14;;;;;;;29.03;26.40;;;13.50;99.90;;;;;;6136119;23;20455;-88
2023/05/09 05:09:42;;;;;;;28.03;25.33;;;13.60;99.90;;;;;;6129217;23;20505;-89
2023/05/09 05:12:09;;;;;;;27.93;25.20;;;13.60;99.90;;;;;;6142931;23;20521;-88
2023/05/09 05:14:36;;;;;;;28.30;25.50;;;13.70;99.90;;;;;;6135911;23;20433;-88
2023/05/09 05:17:03;;;;;;;26.20;23.80;;;13.60;99.90;;;;;;6137320;23;20471;-88
2023/05/09 05:19:31;;;;;;;26.73;24.23;;;13.60;99.90;;;;;;6132158;23;20458;-88
2023/05/09 05:21:58;;;;;;;27.70;25.07;;;13.60;99.90;;;;;;6138852;23;20442;-76
2023/05/09 05:24:25;;;;;;;28.37;25.67;;;13.60;99.90;;;;;;6131003;23;20544;-79
2023/05/09 05:26:53;;;;;;;28.27;25.60;;;13.50;99.90;;;;;;6135756;23;20431;-75
2023/05/09 05:29:20;;;;;;;27.80;25.27;;;13.50;99.90;;;;;;6129553;23;20533;-75
2023/05/09 05:31:47;;;;;;;28.67;25.97;;;13.50;99.90;;;;;;6139238;23;20470;-75
2023/05/09 05:34:15;;;;;;;27.60;25.03;;;13.60;99.90;;;;;;6138881;23;20531;-75
2023/05/09 05:36:42;;;;;;;28.20;25.40;;;13.60;99.90;;;;;;6144089;23;20794;-75
2023/05/09 05:39:09;;;;;;;27.87;25.37;;;13.60;99.90;;;;;;6134382;23;20821;-75
2023/05/09 05:41:36;;;;;;;29.37;26.77;;;13.60;99.90;;;;;;6140462;23;20519;-75
2023/05/09 05:44:05;;;;;;;28.43;25.80;;;13.60;99.90;;;;;;6135759;23;20441;-75
2023/05/09 05:46:32;;;;;;;28.77;26.07;;;13.60;99.90;;;;;;6135638;23;20432;-75
2023/05/09 05:48:59;;;;;;;30.73;27.70;;;13.60;99.90;;;;;;6132069;23;20463;-75
2023/05/09 05:51:26;;;;;;;30.53;27.70;;;13.70;99.90;;;;;;6143877;23;20489;-75
2023/05/09 05:53:53;;;;;;;31.27;28.10;;;13.80;99.90;;;;;;6139006;23;20432;-75
2023/05/09 05:56:21;;;;;;;30.37;27.57;;;13.80;99.90;;;;;;6141794;23;20465;-75
2023/05/09 05:58:48;;;;;;;30.50;27.47;;;13.80;99.90;;;;;;6142957;23;20471;-75
2023/05/09 06:01:16;;;;;;;31.70;28.70;;;13.90;99.90;;;;;;6142587;23;20514;-75
2023/05/09 06:03:44;;;;;;;29.87;27.13;;;14.00;99.90;;;;;;6132839;23;20526;-75
2023/05/09 06:06:11;;;;;;;28.97;26.40;;;14.10;99.90;;;;;;6145357;23;20834;-74
2023/05/09 06:08:38;;;;;;;28.70;25.77;;;14.20;99.90;;;;;;6139600;23;20540;-74
2023/05/09 06:11:05;;;;;;;29.77;26.93;;;14.40;99.90;;;;;;6125578;23;20515;-75
2023/05/09 06:13:32;;;;;;;28.10;25.50;;;14.50;99.90;;;;;;6135293;23;20437;-74
2023/05/09 06:15:59;;;;;;;27.80;25.40;;;14.60;99.90;;;;;;6128709;23;20490;-74
2023/05/09 06:18:27;;;;;;;29.23;26.63;;;14.60;99.90;;;;;;6129759;23;20479;-74
2023/05/09 06:20:54;;;;;;;27.80;25.20;;;14.70;99.90;;;;;;6127836;23;20462;-74
2023/05/09 06:23:21;;;;;;;27.30;25.00;;;14.80;99.90;;;;;;6122587;23;20444;-74
2023/05/09 06:25:48;;;;;;;26.47;24.07;;;14.90;99.90;;;;;;6137683;23;20451;-74
2023/05/09 06:28:15;;;;;;;25.73;23.50;;;15.10;99.90;;;;;;6134245;23;20487;-74
2023/05/09 06:30:42;;;;;;;26.03;23.77;;;15.20;99.90;;;;;;6133738;23;20428;-74
2023/05/09 06:33:10;;;;;;;27.70;25.20;;;15.40;99.90;;;;;;6136995;23;20433;-74
2023/05/09 06:35:38;;;;;;;26.60;24.20;;;15.60;99.90;;;;;;6125421;23;20497;-74
2023/05/09 06:38:05;;;;;;;25.37;23.13;;;15.80;99.90;;;;;;6136925;23;20851;-74
2023/05/09 06:40:33;;;;;;;26.97;24.67;;;15.90;99.90;;;;;;6124165;23;20441;-74
2023/05/09 06:43:00;;;;;;;26.83;24.40;;;15.90;99.90;;;;;;6147938;23;20464;-74
2023/05/09 06:45:27;;;;;;;26.30;24.00;;;16.00;99.90;;;;;;6140864;23;21006;-74
2023/05/09 06:47:54;;;;;;;27.80;25.30;;;16.20;99.90;;;;;;6127906;23;20537;-74
2023/05/09 06:50:21;;;;;;;26.10;23.60;;;16.30;99.90;;;;;;6138637;23;20437;-74
2023/05/09 06:52:49;;;;;;;26.50;24.20;;;16.30;99.90;;;;;;6142879;23;20452;-74
2023/05/09 06:55:16;;;;;;;27.37;24.87;;;16.40;99.90;;;;;;6128607;23;20460;-74
2023/05/09 06:57:43;;;;;;;26.67;24.33;;;16.20;99.90;;;;;;6146460;23;20471;-74
2023/05/09 07:00:11;;;;;;;26.77;24.33;;;16.30;99.90;;;;;;6141881;23;20433;-74
2023/05/09 07:02:40;;;;;;;28.17;25.27;;;16.50;99.90;;;;;;6138699;23;20437;-74
2023/05/09 07:05:09;;;;;;;27.17;24.40;;;16.40;99.90;;;;;;6135532;23;20916;-74
2023/05/09 07:07:35;;;;;;;27.20;24.80;;;16.50;99.90;;;;;;6130423;23;20869;-74
2023/05/09 07:10:05;;;;;;;28.30;25.70;;;16.50;99.90;;;;;;6141973;23;20814;-74
2023/05/09 07:12:32;;;;;;;27.40;24.73;;;16.70;99.90;;;;;;6148819;23;20439;-74
2023/05/09 07:14:59;;;;;;;27.30;24.53;;;16.70;99.90;;;;;;6137005;23;20444;-74
2023/05/09 07:17:28;;;;;;;25.67;23.27;;;16.90;99.90;;;;;;6137120;23;20460;-74
2023/05/09 07:19:55;;;;;;;24.67;22.43;;;16.90;99.90;;;;;;6140520;23;20482;-74
2023/05/09 07:22:22;;;;;;;24.77;22.67;;;17.10;99.90;;;;;;6122882;23;20440;-74
2023/05/09 07:24:50;;;;;;;24.97;22.80;;;17.20;99.90;;;;;;6132455;23;20437;-74
2023/05/09 07:27:19;;;;;;;25.40;23.10;;;17.20;99.90;;;;;;6133721;23;22150;-74
2023/05/09 07:29:47;;;;;;;24.60;22.50;;;17.20;99.90;;;;;;6132703;23;20447;-74
2023/05/09 07:32:15;;;;;;;25.37;22.97;;;17.20;99.90;;;;;;6133996;23;20504;-74
2023/05/09 07:34:42;;;;;;;25.13;22.83;;;17.30;99.90;;;;;;6129289;23;20437;-73
2023/05/09 07:37:09;;;;;;;23.70;21.50;;;17.40;99.90;;;;;;6141932;23;20902;-74
2023/05/09 07:39:36;;;;;;;24.37;22.17;;;17.50;99.90;;;;;;6133538;23;20461;-74
2023/05/09 07:42:03;;;;;;;25.00;22.80;;;17.70;99.90;;;;;;6130554;23;20433;-74
2023/05/09 07:44:31;;;;;;;22.57;20.57;;;17.90;99.90;;;;;;6132881;23;20432;-74
2023/05/09 07:46:59;;;;;;;22.17;20.07;;;18.10;99.90;;;;;;6139912;23;20931;-74
2023/05/09 07:49:26;;;;;;;20.67;18.97;;;18.40;99.90;;;;;;6146051;23;20471;-74
2023/05/09 07:51:53;;;;;;;19.60;18.00;;;18.80;99.90;;;;;;6143607;23;20518;-75
2023/05/09 07:54:21;;;;;;;22.20;20.40;;;19.10;99.90;;;;;;6128346;23;20435;-74
2023/05/09 07:56:48;;;;;;;21.57;19.77;;;19.00;99.90;;;;;;6134642;23;20467;-74
2023/05/09 07:59:15;;;;;;;20.00;18.30;;;18.70;99.90;;;;;;6146351;23;20544;-74
2023/05/09 08:01:45;;;;;;;20.23;18.53;;;18.70;99.90;;;;;;6142216;23;20436;-74
2023/05/09 08:04:12;;;;;;;18.90;17.40;;;18.80;99.90;;;;;;6136939;23;20441;-74
2023/05/09 08:06:39;;;;;;;18.73;17.13;;;18.70;99.90;;;;;;6137320;23;20436;-74
2023/05/09 08:09:07;;;;;;;18.43;16.93;;;18.70;99.90;;;;;;6131639;23;20540;-74
2023/05/09 08:11:34;;;;;;;19.10;17.40;;;18.90;99.90;;;;;;6133255;23;20455;-75
2023/05/09 08:14:01;;;;;;;17.97;16.40;;;19.20;99.90;;;;;;6128738;23;20437;-74
2023/05/09 08:16:28;;;;;;;18.10;16.70;;;19.40;99.90;;;;;;6139557;23;20438;-74
2023/05/09 08:18:57;;;;;;;18.83;17.30;;;19.70;99.90;;;;;;6130756;23;20539;-74
2023/05/09 08:21:24;;;;;;;17.07;15.67;;;19.90;99.90;;;;;;6141193;23;20430;-74
2023/05/09 08:23:51;;;;;;;16.87;15.43;;;20.00;99.90;;;;;;6141042;23;20519;-74
2023/05/09 08:26:18;;;;;;;17.90;16.43;;;20.00;99.90;;;;;;6146475;23;20435;-74
2023/05/09 08:28:45;;;;;;;17.97;16.43;;;19.90;99.90;;;;;;6128633;23;20490;-74
2023/05/09 08:31:13;;;;;;;19.23;17.73;;;19.80;99.90;;;;;;6138856;23;20512;-74
2023/05/09 08:33:40;;;;;;;18.57;17.00;;;19.30;99.90;;;;;;6147283;23;20455;-74
2023/05/09 08:36:08;;;;;;;17.07;15.73;;;19.10;99.90;;;;;;6139508;23;20956;-74
2023/05/09 08:38:38;;;;;;;17.37;15.87;;;19.20;99.90;;;;;;6135675;23;20480;-74
2023/05/09 08:41:05;;;;;;;17.80;16.40;;;19.40;99.90;;;;;;6141837;23;20435;-74
2023/05/09 08:43:34;;;;;;;19.97;18.27;;;19.90;99.90;;;;;;6133430;23;20907;-74
2023/05/09 08:46:06;;;;;;;18.93;17.43;;;20.40;99.90;;;;;;6141371;23;20440;-75
2023/05/09 08:48:36;;;;;;;19.90;18.40;;;20.80;99.90;;;;;;6126930;23;20448;-74
2023/05/09 08:51:04;;;;;;;19.00;17.50;;;21.10;99.90;;;;;;6123812;23;20441;-74
2023/05/09 08:53:33;;;;;;;20.83;19.13;;;21.30;99.90;;;;;;6132345;23;20463;-74
2023/05/09 08:56:01;;;;;;;18.30;16.80;;;21.50;99.90;;;;;;6130312;23;20792;-75
2023/05/09 08:58:28;;;;;;;19.60;18.10;;;21.60;99.90;;;;;;6133846;23;21004;-74
2023/05/09 09:00:56;;;;;;;18.60;17.10;;;21.80;99.90;;;;;;6147664;23;20515;-74
2023/05/09 09:03:24;;;;;;;18.40;16.90;;;21.50;99.90;;;;;;6140260;23;21048;-74
2023/05/09 09:05:53;;;;;;;17.37;15.97;;;21.80;99.90;;;;;;6128544;23;20432;-75
2023/05/09 09:08:20;;;;;;;20.67;19.03;;;22.00;99.90;;;;;;6136323;23;21023;-74
2023/05/09 09:10:48;;;;;;;16.27;15.00;;;22.20;99.90;;;;;;6141021;23;20524;-75
2023/05/09 09:13:17;;;;;;;17.40;16.10;;;22.10;99.90;;;;;;6144038;23;20507;-75
2023/05/09 09:15:46;;;;;;;14.83;13.67;;;22.30;99.90;;;;;;6139801;23;20424;-74
2023/05/09 09:18:20;;;;;;;17.43;15.83;;;22.10;99.90;;;;;;6155956;23;20546;-74
2023/05/09 09:20:51;;;;;;;15.23;14.13;;;21.90;99.90;;;;;;6142913;23;20511;-74
2023/05/09 09:23:20;;;;;;;16.00;14.83;;;21.70;99.90;;;;;;6141840;23;20507;-74
2023/05/09 09:25:57;;;;;;;16.27;15.00;;;21.80;99.90;;;;;;6137804;23;20487;-74
2023/05/09 09:28:24;;;;;;;17.10;15.80;;;21.80;99.90;;;;;;6146821;23;20479;-74
2023/05/09 09:30:52;;;;;;;17.87;16.47;;;21.80;99.90;;;;;;6141570;23;20436;-74
2023/05/09 09:33:21;;;;;;;17.23;15.83;;;21.50;99.90;;;;;;6136700;23;20467;-74
2023/05/09 09:35:49;;;;;;;17.33;15.93;;;21.40;99.90;;;;;;6148663;23;20998;-74
2023/05/09 09:38:17;;;;;;;15.47;14.23;;;21.00;99.90;;;;;;6136990;23;20454;-74
2023/05/09 09:40:55;;;;;;;16.77;15.47;;;21.00;99.90;;;;;;6147124;23;20947;-74
2023/05/09 09:43:27;;;;;;;17.83;16.37;;;21.10;99.90;;;;;;6130472;23;20436;-74
2023/05/09 09:45:55;;;;;;;16.53;15.10;;;21.20;99.90;;;;;;6141407;23;20437;-74
2023/05/09 09:48:26;;;;;;;16.80;15.33;;;21.50;99.90;;;;;;6137062;23;20590;-75
2023/05/09 09:50:55;;;;;;;16.83;15.57;;;22.00;99.90;;;;;;6146088;23;20777;-75
2023/05/09 09:53:23;;;;;;;16.23;15.00;;;22.30;99.90;;;;;;6156474;23;20983;-74
2023/05/09 09:55:52;;;;;;;17.67;16.27;;;22.60;99.90;;;;;;6141803;23;20536;-74
2023/05/09 09:58:23;;;;;;;18.43;17.10;;;22.50;99.90;;;;;;6148218;23;20796;-74
2023/05/09 10:01:05;;;;;;;19.90;18.10;;;22.50;99.90;;;;;;6143889;23;20432;-74
2023/05/09 10:03:36;;;;;;;17.10;15.80;;;22.30;99.90;;;;;;6127277;23;20440;-75
2023/05/09 10:06:05;;;;;;;15.17;14.07;;;22.20;99.90;;;;;;6147615;23;20455;-74
2023/05/09 10:08:32;;;;;;;13.17;12.23;;;22.00;99.90;;;;;;6146516;23;22110;-75
2023/05/09 10:11:00;;;;;;;13.90;12.80;;;21.90;99.90;;;;;;6139731;23;20436;-75
2023/05/09 10:13:29;;;;;;;13.33;12.23;;;21.70;99.90;;;;;;6139875;23;20481;-74
2023/05/09 10:15:58;;;;;;;13.97;12.90;;;21.50;99.90;;;;;;6151043;23;20435;-74
2023/05/09 10:18:28;;;;;;;13.43;12.30;;;21.80;99.90;;;;;;6145329;23;20471;-76
2023/05/09 10:20:59;;;;;;;12.20;11.30;;;22.30;99.90;;;;;;6133124;23;20471;-74
2023/05/09 10:23:27;;;;;;;12.23;11.33;;;22.70;99.90;;;;;;6136297;23;20442;-75
2023/05/09 10:26:04;;;;;;;11.20;10.30;;;23.10;99.90;;;;;;6131773;23;21351;-74
2023/05/09 10:28:35;;;;;;;9.87;9.07;;;23.20;99.90;;;;;;6140947;23;20483;-74
2023/05/09 10:31:07;;;;;;;9.80;9.10;;;23.40;99.90;;;;;;6153565;23;20747;-74
2023/05/09 10:33:41;;;;;;;11.53;10.60;;;23.80;99.90;;;;;;6138306;23;20466;-74
2023/05/09 10:36:09;;;;;;;11.33;10.43;;;23.70;99.90;;;;;;6141463;23;21515;-73
2023/05/09 10:38:37;;;;;;;10.77;9.97;;;23.30;99.90;;;;;;6151092;23;20452;-74
2023/05/09 10:41:05;;;;;;;10.00;9.30;;;23.40;99.90;;;;;;6135599;23;20436;-74
2023/05/09 10:43:35;;;;;;;11.50;10.60;;;23.60;99.90;;;;;;6138042;23;21002;-74
2023/05/09 10:46:02;;;;;;;10.80;10.00;;;23.60;99.90;;;;;;6142350;23;20431;-75
2023/05/09 10:48:30;;;;;;;11.10;10.30;;;23.60;99.90;;;;;;6148361;23;20526;-75
2023/05/09 10:50:58;;;;;;;9.83;9.20;;;23.90;99.90;;;;;;6144417;23;20471;-75
2023/05/09 10:53:40;;;;;;;10.93;10.03;;;24.10;99.90;;;;;;6150521;23;20434;-75
2023/05/09 10:56:07;;;;;;;9.90;9.20;;;24.40;99.90;;;;;;6138303;23;20829;-75
2023/05/09 10:58:37;;;;;;;11.00;9.93;;;24.10;99.90;;;;;;6134902;23;20960;-75
2023/05/09 11:01:05;;;;;;;10.93;10.13;;;24.00;99.90;;;;;;6134631;23;20448;-76
2023/05/09 11:03:54;;;;;;;11.10;10.40;;;24.10;99.90;;;;;;6145240;23;20915;-75
2023/05/09 11:06:45;;;;;;;11.50;10.60;;;24.30;99.90;;;;;;6143825;23;20428;-75
2023/05/09 11:09:24;;;;;;;10.57;9.70;;;24.60;99.90;;;;;;6145172;23;20433;-75
2023/05/09 11:11:52;;;;;;;10.83;10.03;;;24.70;99.90;;;;;;6141261;23;20432;-75
2023/05/09 11:14:40;;;;;;;8.13;7.63;;;24.90;99.90;;;;;;6149936;23;20514;-75
2023/05/09 11:17:08;;;;;;;9.67;9.00;;;25.20;99.90;;;;;;6132561;23;20538;-76
2023/05/09 11:19:37;;;;;;;11.23;10.33;;;25.70;99.90;;;;;;6155443;23;20472;-78
2023/05/09 11:22:15;;;;;;;11.23;10.40;;;25.80;99.90;;;;;;6143365;23;20432;-76
2023/05/09 11:24:45;;;;;;;11.60;10.77;;;26.00;99.90;;;;;;6153718;23;20427;-76
2023/05/09 11:27:18;;;;;;;10.67;9.87;;;26.00;99.90;;;;;;6144127;23;20449;-76
2023/05/09 11:29:51;;;;;;;11.63;10.80;;;25.40;99.90;;;;;;6133392;23;20924;-76
2023/05/09 11:32:18;;;;;;;10.80;10.00;;;25.40;99.90;;;;;;6141816;23;21062;-76
2023/05/09 11:34:46;;;;;;;12.77;11.77;;;25.40;99.90;;;;;;6143058;23;20519;-75
2023/05/09 11:37:15;;;;;;;10.83;9.93;;;25.50;99.90;;;;;;6137672;23;20454;-75
2023/05/09 11:39:57;;;;;;;9.40;8.70;;;25.10;99.90;;;;;;6146711;23;20456;-76
2023/05/09 11:42:25;;;;;;;11.57;10.73;;;25.10;99.90;;;;;;6137385;23;20437;-75
2023/05/09 11:44:54;;;;;;;11.77;10.77;;;25.10;99.90;;;;;;6127617;23;20428;-78
2023/05/09 11:47:21;;;;;;;9.73;9.00;;;25.00;99.90;;;;;;6135504;23;20456;-76
2023/05/09 11:49:48;;;;;;;9.37;8.67;;;25.10;99.90;;;;;;6129356;23;20467;-77
2023/05/09 11:52:16;;;;;;;9.50;8.80;;;25.00;99.90;;;;;;6138008;23;20433;-76
2023/05/09 11:54:42;;;;;;;8.90;8.30;;;23.90;99.90;;;;;;6142888;23;20440;-77
2023/05/09 11:57:15;;;;;;;9.10;8.30;;;23.60;99.90;;;;;;6137667;23;20472;-74
2023/05/09 11:59:43;;;;;;;10.23;9.53;;;23.40;99.90;;;;;;6147743;23;20513;-77
2023/05/09 12:02:12;;;;;;;8.77;8.07;;;23.50;99.90;;;;;;6143870;23;20508;-74
2023/05/09 12:04:39;;;;;;;8.77;8.17;;;23.40;99.90;;;;;;6147276;23;20489;-74
2023/05/09 12:07:06;;;;;;;8.63;8.03;;;23.40;99.90;;;;;;6129930;23;20840;-74
2023/05/09 12:09:36;;;;;;;8.00;7.40;;;23.40;99.90;;;;;;6118561;23;20441;-74
2023/05/09 12:12:10;;;;;;;8.87;8.00;;;23.80;99.90;;;;;;6118527;23;20441;-77
2023/05/09 12:14:39;;;;;;;8.80;8.10;;;24.20;99.90;;;;;;6120683;23;20442;-81
2023/05/09 12:17:07;;;;;;;7.90;7.30;;;24.70;99.90;;;;;;6140232;23;21030;-81
2023/05/09 12:19:36;;;;;;;7.53;7.00;;;25.00;99.90;;;;;;6134435;23;20479;-76
2023/05/09 12:22:05;;;;;;;8.87;7.97;;;24.90;99.90;;;;;;6133916;23;20944;-74
2023/05/09 12:24:36;;;;;;;8.43;7.73;;;24.60;99.90;;;;;;6133729;23;20428;-74
2023/05/09 12:27:06;;;;;;;8.40;7.73;;;24.50;99.90;;;;;;6143460;23;20464;-75
2023/05/09 12:29:34;;;;;;;8.37;7.67;;;24.50;99.90;;;;;;6128048;23;21016;-75
2023/05/09 12:32:01;;;;;;;7.97;7.40;;;24.40;99.90;;;;;;6126488;23;21677;-73
2023/05/09 12:34:29;;;;;;;7.73;7.03;;;24.50;99.90;;;;;;6148798;23;20865;-72
2023/05/09 12:36:58;;;;;;;7.70;7.00;;;24.80;99.90;;;;;;6138743;23;20508;-72